Flight Track Log - Related Links

Times and Time Zones

All times are in EDT time to prevent confusion due to time zone crossing. See the UAL3835 flight status page for this flight to view local times or setup timezone preferences in your user account.

Time Position Orientation Groundspeed Altitude Reporting Facility
EDT Latitude Longitude Course Direction KTS MPH feet Rate Location/Type
Sat 11:19:45 AM 44.9167 -63.5000 10° North 200 230 3,300  Level Moncton Center
Sat 11:20:45 AM 44.9000 -63.5667 251° West 240 276 5,300 1,800 Climbing Moncton Center
Sat 11:21:45 AM 44.8833 -63.6667 257° West 280 322 6,900 1,950 Climbing Moncton Center
Sat 11:22:45 AM 44.8500 -63.7833 248° West 290 334 9,200 1,900 Climbing Moncton Center
Sat 11:23:45 AM 44.8167 -63.8833 245° Southwest 300 345 10,700 1,400 Climbing Moncton Center
Sat 11:24:45 AM 44.8000 -64.0167 260° West 330 380 12,000 1,350 Climbing Moncton Center
Sat 11:25:45 AM 44.7833 -64.1667 261° West 350 403 13,400 1,750 Climbing Moncton Center
Sat 11:26:45 AM 44.7667 -64.3000 260° West 350 403 15,500 2,100 Climbing Moncton Center
Sat 11:27:45 AM 44.7500 -64.4167 259° West 340 391 17,600 1,700 Climbing Moncton Center
Sat 11:28:45 AM 44.7333 -64.5667 261° West 340 391 18,900 1,400 Climbing Moncton Center
Sat 11:29:45 AM 44.7167 -64.6833 259° West 340 391 20,400 1,550 Climbing Moncton Center
Sat 11:30:45 AM 44.7000 -64.8167 260° West 340 391 22,000 1,550 Climbing Moncton Center
Sat 11:31:45 AM 44.6833 -64.9333 259° West 340 391 23,500 1,550 Climbing Moncton Center
Sat 11:32:45 AM 44.6667 -65.0833 261° West 340 391 25,100 1,350 Climbing Moncton Center
Sat 11:33:45 AM 44.6500 -65.2167 260° West 350 403 26,200 1,000 Climbing Moncton Center
Sat 11:34:45 AM 44.6333 -65.3667 261° West 360 414 27,100 900 Climbing Moncton Center
Sat 11:35:45 AM 44.6167 -65.4833 259° West 360 414 28,000 1,000 Climbing Moncton Center
Sat 11:36:45 AM 44.6000 -65.6333 261° West 370 426 29,100 1,000 Climbing Moncton Center
Sat 11:37:45 AM 44.5833 -65.7833 261° West 370 426 30,000 950 Climbing Moncton Center
Sat 11:38:45 AM 44.5667 -65.9167 260° West 380 437 31,000 950 Climbing Moncton Center
Sat 11:39:45 AM 44.5500 -66.0667 261° West 380 437 31,900 950 Climbing Moncton Center
Sat 11:40:45 AM 44.5167 -66.2333 254° West 390 449 32,900 1,000 Climbing Moncton Center
Sat 11:41:45 AM 44.4833 -66.3667 251° West 390 449 33,900 1,000 Climbing Moncton Center
Sat 11:42:45 AM 44.4667 -66.5333 262° West 390 449 34,900 800 Climbing Moncton Center
Sat 11:43:45 AM 44.4500 -66.6667 260° West 390 449 35,500 500 Climbing Moncton Center
Sat 11:44:45 AM 44.4333 -66.8167 261° West 400 460 35,900 250 Climbing Moncton Center
Sat 11:45:45 AM 44.4000 -66.9667 253° West 410 472 36,000 42 Climbing Moncton Center
Sat 11:47:08 AM 44.3853 -67.1894 265° West 417 480 36,000  Level Boston Center
Sat 11:48:08 AM 44.3597 -67.3603 258° West 439 505 36,000  Level Boston Center
Sat 11:48:45 AM 44.3333 -67.4833 253° West 450 518 36,000  Level Moncton Center
Sat 11:49:08 AM 44.3319 -67.5369 268° West 454 522 36,000  Level Boston Center
Sat 11:50:08 AM 44.3108 -67.6781 258° West 459 528 36,000  Level Boston Center
Sat 11:51:08 AM 44.2775 -67.8897 258° West 464 534 36,000  Level Boston Center
Sat 11:52:08 AM 44.2492 -68.0689 258° West 464 534 36,000  Level Boston Center
Sat 11:53:08 AM 44.2183 -68.2508 257° West 478 550 36,000  Level Boston Center
Sat 11:54:08 AM 44.1892 -68.4294 257° West 478 550 36,000  Level Boston Center
Sat 11:55:08 AM 44.1600 -68.6111 257° West 478 550 36,000  Level Boston Center
Sat 11:56:08 AM 44.1306 -68.7922 257° West 473 544 36,000  Level Boston Center
Sat 11:57:08 AM 44.1006 -68.9647 256° West 473 544 36,000  Level Boston Center
Sat 11:58:08 AM 44.0703 -69.1400 257° West 473 544 36,000  Level Boston Center
Sat 11:59:08 AM 44.0417 -69.3178 257° West 473 544 36,000  Level Boston Center
Sat 12:00:08 PM 44.0089 -69.4928 255° West 473 544 36,000  Level Boston Center
Sat 12:01:08 PM 43.9758 -69.6703 256° West 473 544 36,000  Level Boston Center
Sat 12:02:08 PM 43.9447 -69.8506 257° West 473 544 36,000  Level Boston Center
Sat 12:03:08 PM 43.9092 -70.0425 256° West 473 544 36,000  Level Boston Center
Sat 12:04:08 PM 43.8772 -70.2194 256° West 473 544 36,000  Level Boston Center
Sat 12:05:08 PM 43.8472 -70.3903 256° West 473 544 36,000  Level Boston Center
Sat 12:06:08 PM 43.8125 -70.5642 255° West 473 544 36,000  Level Boston Center
Sat 12:07:08 PM 43.7819 -70.7378 256° West 473 544 36,000  Level Boston Center
Sat 12:08:08 PM 43.7469 -70.9083 254° West 473 544 36,000  Level Boston Center
Sat 12:09:08 PM 43.7136 -71.0786 255° West 473 544 36,000  Level Boston Center
Sat 12:10:08 PM 43.6822 -71.2544 256° West 473 544 36,000  Level Boston Center
Sat 12:11:08 PM 43.6544 -71.4042 256° West 468 539 36,000  Level Boston Center
Sat 12:12:08 PM 43.6206 -71.5769 255° West 468 539 36,000  Level Boston Center
Sat 12:13:08 PM 43.5883 -71.7464 255° West 468 539 36,000  Level Boston Center
Sat 12:14:08 PM 43.5517 -71.9217 254° West 468 539 36,000  Level Boston Center
Sat 12:15:08 PM 43.5189 -72.0936 255° West 473 544 36,000  Level Boston Center
Sat 12:16:08 PM 43.4839 -72.2656 254° West 473 544 36,000  Level Boston Center
Sat 12:17:08 PM 43.4486 -72.4344 254° West 468 539 36,000 -200 Level Boston Center
Sat 12:18:08 PM 43.4131 -72.6058 254° West 468 539 35,600 -750 Descending Boston Center
Sat 12:19:08 PM 43.3794 -72.7742 255° West 468 539 34,500 -1,500 Descending Boston Center
Sat 12:20:08 PM 43.3414 -72.9511 254° West 473 544 32,600 -2,050 Descending Boston Center
Sat 12:21:08 PM 43.3069 -73.1219 255° West 473 544 30,400 -2,500 Descending Boston Center
Sat 12:22:08 PM 43.2706 -73.2928 254° West 473 544 27,600 -2,350 Descending Boston Center
Sat 12:23:08 PM 43.2272 -73.4831 253° West 478 550 25,700 -2,300 Descending Boston Center
Sat 12:24:08 PM 43.1467 -73.6267 232° Southwest 483 556 23,000 -2,350 Descending Boston Center
Sat 12:25:08 PM 43.0208 -73.6867 199° South 454 522 21,000 -1,400 Descending Boston Center
Sat 12:26:08 PM 42.9078 -73.7356 198° South 437 503 20,200 -800 Descending Boston Center
Sat 12:27:08 PM 42.8197 -73.7761 199° South 409 471 19,400 -950 Descending Boston Center
Sat 12:28:08 PM 42.7172 -73.8219 198° South 380 437 18,300 -900 Descending Boston Center
Sat 12:29:08 PM 42.6250 -73.8622 198° South 359 413 17,600 -750 Descending Boston Center
Sat 12:30:08 PM 42.5517 -73.8917 196° South 348 400 16,800 -800 Descending Boston Center
Sat 12:31:08 PM 42.4467 -73.9397 199° South 338 389 16,000 -400 Descending Boston Center
Sat 12:32:08 PM 42.3692 -73.9717 197° South 329 379 16,000  Level Boston Center
Sat 12:33:08 PM 42.2728 -74.0169 199° South 322 371 16,000  Level Boston Center
Sat 12:34:08 PM 42.1950 -74.0514 198° South 327 376 16,000 50 Level Boston Center
Sat 12:35:08 PM 42.0986 -74.0936 198° South 327 376 16,100 -150 Climbing Boston Center
Sat 12:36:08 PM 42.0106 -74.1306 197° South 327 376 15,700 -750 Descending Boston Center
Sat 12:37:08 PM 41.9286 -74.1675 199° South 327 376 14,600 -1,050 Descending Boston Center
Sat 12:38:08 PM 41.8469 -74.2042 198° South 327 376 13,600 -1,050 Descending Boston Center
Sat 12:39:08 PM 41.7650 -74.2381 197° South 316 364 12,500 -950 Descending Boston Center
Sat 12:40:08 PM 41.6853 -74.2747 199° South 306 352 11,700 -900 Descending Boston Center
Sat 12:41:08 PM 41.6075 -74.3086 198° South 306 352 10,700 -1,000 Descending Boston Center
Sat 12:42:08 PM 41.5361 -74.3369 197° South 306 352 9,700 -1,200 Descending Boston Center
Sat 12:43:08 PM 41.4522 -74.3761 199° South 306 352 8,300 -852 Descending Boston Center
Sat 12:44:43 PM 41.3333 -74.4167 194° South 286 329 7,500 -465 Descending New York TRACON
Sat 12:45:43 PM 41.2667 -74.4167 180° South 269 310 7,100 -555 Descending New York TRACON
Sat 12:46:42 PM 41.2000 -74.3500 143° Southeast 264 304 6,400 -950 Descending New York TRACON
Sat 12:47:43 PM 41.1333 -74.3000 151° Southeast 265 305 5,200 -645 Descending New York TRACON
Sat 12:48:43 PM 41.0833 -74.2500 143° Southeast 255 293 5,100 -400 Descending New York TRACON
Sat 12:49:43 PM 41.0167 -74.2000 150° Southeast 261 300 4,400 -500 Descending New York TRACON
Sat 12:50:43 PM 40.9500 -74.1500 150° Southeast 256 295 4,100 -200 Descending New York TRACON
Sat 12:51:43 PM 40.9000 -74.1000 143° Southeast 244 281 4,000 -500 Descending New York TRACON
Sat 12:52:43 PM 40.8500 -74.0667 153° Southeast 204 235 3,100 -800 Descending New York TRACON
Sat 12:53:43 PM 40.8000 -74.1000 207° Southwest 197 227 2,400 -900 Descending New York TRACON
Sat 12:54:43 PM 40.7500 -74.1333 207° Southwest 176 203 1,300 -950 Descending New York TRACON
Sat 12:55:43 PM 40.7167 -74.1500 201° Southwest 132 152 500 -800 Descending New York TRACON
Sat 12:57:00 PM 40.6925 -74.1687 210° Southwest  Level Estimated
Sat 01:04:00 PM 40.6925 -74.1687 90° East  Level Estimated
Sat 01:05:00 PM 40.6925 -74.1687 90° East  Level Estimated

Login

Don't have an account? Register now (free) for customized features, flight alerts, and more!